Hauptseite
METAR-TAF:

METAR-TAF

Flughäfen :

Heeresflugplatz Altenstadt

Altenstadt, Deutschland

Breite: 47-50N, Länge: 010-52E, Höhe: 739 m

Beobachtung

Neuester Wetterbericht von vor 34 Minuten, um 10:20 UTC
Wind 5 kt aus West/Nordwest
Temperatur 24°C
Luftfeuchtigkeit 47%
Luftdruck 1019 hPa
Sichtweite 10 km oder mehr
Leicht bewölkt in der Höhe von 4000 ft

METAR: ETHA 181020Z 29005KT 9999 FEW040 24/12 Q1019 BLU+BLU+

Zeit: 12:54 (10:54 UTC)

Prognose

Neuester Wetterbericht von vor 34 Minuten, um 10:20 UTC
Gültige Prognose vom 18 um 11 UTC bis 18 um 20 UTC
Wind 8 kt aus West/Nordwest
Sichtweite 10 km oder mehr
Aufgelockert bewölkt in der Höhe von 4000 ft

TAF: ETHA 181020Z 1811/1820 30008KT 9999 NSW SCT040

Wetterbeobachtungen und Prognosen von mehr als 4000 Flughäfen (METAR und TAF Bericht).

Die verfügbaren Stationen werden durch gelbe und rote Markierungen auf der Karte dargestellt.

Führen Sie die Maus auf sie, um den Namen der Station zu sehen.

Darauf klicken, um die Beobachtung von Wetterbeobachtungen und Prognosen zu sehen.

Um die Karte zu ändern : klicken Sie auf den grünen Tasten mit einem schwarzen Kreuz Zum Vergrößern, auf den grünen Button mit einem Gedankenstrich zu verkleinern, oder auf die grünen Pfeile für benachbarte Karten.


METAR-TAF: